sensor_id;sensor_type;location;lat;lon;timestamp;pressure;altitude;pressure_sealevel;temperature;humidity
77770;BME280;66961;51.482;9.160;2024-01-11T00:02:03;100809.81;;;-9.39;100.00
77770;BME280;66961;51.482;9.160;2024-01-11T00:04:28;100811.50;;;-9.38;100.00
77770;BME280;66961;51.482;9.160;2024-01-11T00:06:54;100809.84;;;-9.45;100.00
77770;BME280;66961;51.482;9.160;2024-01-11T00:09:19;100810.69;;;-9.42;100.00
77770;BME280;66961;51.482;9.160;2024-01-11T00:11:44;100818.28;;;-9.34;100.00
77770;BME280;66961;51.482;9.160;2024-01-11T00:14:09;100807.97;;;-9.26;100.00
77770;BME280;66961;51.482;9.160;2024-01-11T00:16:35;100808.81;;;-9.27;100.00
77770;BME280;66961;51.482;9.160;2024-01-11T00:19:00;100802.81;;;-9.23;100.00
77770;BME280;66961;51.482;9.160;2024-01-11T00:21:25;100806.28;;;-9.29;100.00
77770;BME280;66961;51.482;9.160;2024-01-11T00:23:51;100818.25;;;-9.29;100.00
77770;BME280;66961;51.482;9.160;2024-01-11T00:26:16;100817.44;;;-9.35;100.00
77770;BME280;66961;51.482;9.160;2024-01-11T00:28:41;100813.25;;;-9.40;100.00
77770;BME280;66961;51.482;9.160;2024-01-11T00:31:06;100812.44;;;-9.47;100.00
77770;BME280;66961;51.482;9.160;2024-01-11T00:33:32;100814.19;;;-9.53;100.00
77770;BME280;66961;51.482;9.160;2024-01-11T00:35:58;100823.66;;;-9.60;100.00
77770;BME280;66961;51.482;9.160;2024-01-11T00:38:23;100831.38;;;-9.64;100.00
77770;BME280;66961;51.482;9.160;2024-01-11T00:40:49;100817.72;;;-9.71;100.00
77770;BME280;66961;51.482;9.160;2024-01-11T00:43:14;100819.53;;;-9.84;100.00
77770;BME280;66961;51.482;9.160;2024-01-11T00:45:39;100824.66;;;-9.87;100.00
77770;BME280;66961;51.482;9.160;2024-01-11T00:48:04;100826.41;;;-9.89;100.00
77770;BME280;66961;51.482;9.160;2024-01-11T00:50:30;100820.44;;;-9.89;100.00
77770;BME280;66961;51.482;9.160;2024-01-11T00:52:55;100823.88;;;-9.92;100.00
77770;BME280;66961;51.482;9.160;2024-01-11T00:55:21;100813.63;;;-9.96;100.00
77770;BME280;66961;51.482;9.160;2024-01-11T00:57:46;100821.34;;;-10.01;100.00
77770;BME280;66961;51.482;9.160;2024-01-11T01:00:12;100810.28;;;-10.08;100.00
77770;BME280;66961;51.482;9.160;2024-01-11T01:02:37;100806.84;;;-10.02;100.00
77770;BME280;66961;51.482;9.160;2024-01-11T01:05:03;100813.53;;;-9.86;100.00
77770;BME280;66961;51.482;9.160;2024-01-11T01:07:28;100793.09;;;-9.92;100.00
77770;BME280;66961;51.482;9.160;2024-01-11T01:09:53;100784.53;;;-9.91;100.00
77770;BME280;66961;51.482;9.160;2024-01-11T01:12:18;100781.91;;;-9.83;100.00
77770;BME280;66961;51.482;9.160;2024-01-11T01:14:44;100783.59;;;-9.81;100.00
77770;BME280;66961;51.482;9.160;2024-01-11T01:17:09;100781.88;;;-9.80;100.00
77770;BME280;66961;51.482;9.160;2024-01-11T01:19:34;100785.31;;;-9.81;100.00
77770;BME280;66961;51.482;9.160;2024-01-11T01:21:59;100790.47;;;-9.86;100.00
77770;BME280;66961;51.482;9.160;2024-01-11T01:24:25;100796.53;;;-9.96;100.00
77770;BME280;66961;51.482;9.160;2024-01-11T01:26:50;100794.84;;;-9.98;100.00
77770;BME280;66961;51.482;9.160;2024-01-11T01:29:15;100795.72;;;-9.99;100.00
77770;BME280;66961;51.482;9.160;2024-01-11T01:31:40;100796.56;;;-9.99;100.00
77770;BME280;66961;51.482;9.160;2024-01-11T01:34:07;100794.03;;;-10.08;100.00
77770;BME280;66961;51.482;9.160;2024-01-11T01:36:32;100805.16;;;-10.11;100.00
77770;BME280;66961;51.482;9.160;2024-01-11T01:38:57;100802.63;;;-10.12;100.00
77770;BME280;66961;51.482;9.160;2024-01-11T01:41:22;100784.69;;;-10.18;100.00
77770;BME280;66961;51.482;9.160;2024-01-11T01:43:48;100793.28;;;-10.21;100.00
77770;BME280;66961;51.482;9.160;2024-01-11T01:46:19;100792.47;;;-10.27;100.00
77770;BME280;66961;51.482;9.160;2024-01-11T01:48:45;100788.19;;;-10.27;100.00
77770;BME280;66961;51.482;9.160;2024-01-11T01:51:10;100789.06;;;-10.29;100.00
77770;BME280;66961;51.482;9.160;2024-01-11T01:53:36;100797.63;;;-10.32;100.00
77770;BME280;66961;51.482;9.160;2024-01-11T01:56:02;100789.91;;;-10.30;100.00
77770;BME280;66961;51.482;9.160;2024-01-11T01:58:27;100798.47;;;-10.34;100.00
77770;BME280;66961;51.482;9.160;2024-01-11T02:00:53;100797.63;;;-10.33;100.00
77770;BME280;66961;51.482;9.160;2024-01-11T02:03:19;100801.09;;;-10.41;100.00
77770;BME280;66961;51.482;9.160;2024-01-11T02:05:44;100810.50;;;-10.40;100.00
77770;BME280;66961;51.482;9.160;2024-01-11T02:08:15;100813.06;;;-10.40;100.00
77770;BME280;66961;51.482;9.160;2024-01-11T02:10:41;100810.50;;;-10.40;100.00
77770;BME280;66961;51.482;9.160;2024-01-11T02:13:08;100802.81;;;-10.41;100.00
77770;BME280;66961;51.482;9.160;2024-01-11T02:15:34;100807.94;;;-10.43;100.00
77770;BME280;66961;51.482;9.160;2024-01-11T02:17:59;100809.66;;;-10.43;100.00
77770;BME280;66961;51.482;9.160;2024-01-11T02:20:25;100802.81;;;-10.40;100.00
77770;BME280;66961;51.482;9.160;2024-01-11T02:22:53;100797.63;;;-10.33;100.00
77770;BME280;66961;51.482;9.160;2024-01-11T02:25:21;100792.47;;;-10.27;100.00
77770;BME280;66961;51.482;9.160;2024-01-11T02:30:12;100791.59;;;-10.26;100.00
77770;BME280;66961;51.482;9.160;2024-01-11T02:32:37;100795.00;;;-10.23;100.00
77770;BME280;66961;51.482;9.160;2024-01-11T02:35:03;100788.19;;;-10.27;100.00
77770;BME280;66961;51.482;9.160;2024-01-11T02:37:29;100790.78;;;-10.31;100.00
77770;BME280;66961;51.482;9.160;2024-01-11T02:39:55;100791.69;;;-10.40;100.00
77770;BME280;66961;51.482;9.160;2024-01-11T02:42:20;100795.13;;;-10.46;100.00
77770;BME280;66961;51.482;9.160;2024-01-11T02:44:45;100805.41;;;-10.50;100.00
77770;BME280;66961;51.482;9.160;2024-01-11T02:47:11;100802.88;;;-10.64;100.00
77770;BME280;66961;51.482;9.160;2024-01-11T02:49:37;100816.53;;;-10.57;100.00
77770;BME280;66961;51.482;9.160;2024-01-11T02:52:02;100817.38;;;-10.60;100.00
77770;BME280;66961;51.482;9.160;2024-01-11T02:54:28;100819.13;;;-10.65;100.00
77770;BME280;66961;51.482;9.160;2024-01-11T02:56:53;100817.41;;;-10.64;100.00
77770;BME280;66961;51.482;9.160;2024-01-11T02:59:18;100812.28;;;-10.64;100.00
77770;BME280;66961;51.482;9.160;2024-01-11T03:01:43;100812.28;;;-10.66;100.00
77770;BME280;66961;51.482;9.160;2024-01-11T03:04:09;100807.16;;;-10.64;100.00
77770;BME280;66961;51.482;9.160;2024-01-11T03:06:34;100808.84;;;-10.62;100.00
77770;BME280;66961;51.482;9.160;2024-01-11T03:08:59;100799.44;;;-10.57;100.00
77770;BME280;66961;51.482;9.160;2024-01-11T03:11:24;100793.50;;;-10.62;100.00
77770;BME280;66961;51.482;9.160;2024-01-11T03:13:50;100805.44;;;-10.65;100.00
77770;BME280;66961;51.482;9.160;2024-01-11T03:16:15;100811.44;;;-10.70;100.00
77770;BME280;66961;51.482;9.160;2024-01-11T03:18:40;100808.91;;;-10.76;100.00
77770;BME280;66961;51.482;9.160;2024-01-11T03:21:05;100819.13;;;-10.77;100.00
77770;BME280;66961;51.482;9.160;2024-01-11T03:23:31;100823.41;;;-10.81;100.00
77770;BME280;66961;51.482;9.160;2024-01-11T03:25:56;100814.88;;;-10.80;100.00
77770;BME280;66961;51.482;9.160;2024-01-11T03:28:21;100823.41;;;-10.78;100.00
77770;BME280;66961;51.482;9.160;2024-01-11T03:30:46;100826.81;;;-10.76;100.00
77770;BME280;66961;51.482;9.160;2024-01-11T03:33:12;100833.66;;;-10.81;100.00
77770;BME280;66961;51.482;9.160;2024-01-11T03:35:37;100828.53;;;-10.84;100.00
77770;BME280;66961;51.482;9.160;2024-01-11T03:38:02;100820.88;;;-10.85;100.00
77770;BME280;66961;51.482;9.160;2024-01-11T03:40:28;100810.59;;;-10.78;100.00
77770;BME280;66961;51.482;9.160;2024-01-11T03:42:53;100803.78;;;-10.80;100.00
77770;BME280;66961;51.482;9.160;2024-01-11T03:45:18;100802.06;;;-10.75;100.00
77770;BME280;66961;51.482;9.160;2024-01-11T03:47:43;100820.84;;;-10.72;100.00
77770;BME280;66961;51.482;9.160;2024-01-11T03:50:09;100825.94;;;-10.67;100.00
77770;BME280;66961;51.482;9.160;2024-01-11T03:52:34;100823.38;;;-10.65;100.00
77770;BME280;66961;51.482;9.160;2024-01-11T03:54:59;100810.59;;;-10.68;100.00
77770;BME280;66961;51.482;9.160;2024-01-11T03:57:25;100799.50;;;-10.72;100.00
77770;BME280;66961;51.482;9.160;2024-01-11T03:59:50;100799.47;;;-10.63;100.00
77770;BME280;66961;51.482;9.160;2024-01-11T04:02:15;100808.00;;;-10.59;100.00
77770;BME280;66961;51.482;9.160;2024-01-11T04:04:41;100810.53;;;-10.53;100.00
77770;BME280;66961;51.482;9.160;2024-01-11T04:07:06;100803.69;;;-10.51;100.00
77770;BME280;66961;51.482;9.160;2024-01-11T04:09:31;100804.56;;;-10.55;100.00
77770;BME280;66961;51.482;9.160;2024-01-11T04:11:57;100818.22;;;-10.55;100.00
77770;BME280;66961;51.482;9.160;2024-01-11T04:14:22;100817.41;;;-10.64;100.00
77770;BME280;66961;51.482;9.160;2024-01-11T04:16:47;100819.09;;;-10.63;100.00
77770;BME280;66961;51.482;9.160;2024-01-11T04:19:12;100834.50;;;-10.68;100.00
77770;BME280;66961;51.482;9.160;2024-01-11T04:21:38;100830.22;;;-10.74;100.00
77770;BME280;66961;51.482;9.160;2024-01-11T04:24:03;100818.28;;;-10.81;100.00
77770;BME280;66961;51.482;9.160;2024-01-11T04:26:28;100813.19;;;-10.84;100.00
77770;BME280;66961;51.482;9.160;2024-01-11T04:28:54;100819.16;;;-10.82;100.00
77770;BME280;66961;51.482;9.160;2024-01-11T04:31:19;100822.56;;;-10.83;100.00
77770;BME280;66961;51.482;9.160;2024-01-11T04:33:45;100814.88;;;-10.84;100.00
77770;BME280;66961;51.482;9.160;2024-01-11T04:36:11;100828.53;;;-10.79;100.00
77770;BME280;66961;51.482;9.160;2024-01-11T04:38:37;100838.78;;;-10.88;100.00
77770;BME280;66961;51.482;9.160;2024-01-11T04:41:11;100842.22;;;-10.88;100.00
77770;BME280;66961;51.482;9.160;2024-01-11T04:43:41;100840.50;;;-10.89;100.00
77770;BME280;66961;51.482;9.160;2024-01-11T04:46:17;100841.34;;;-10.91;100.00
77770;BME280;66961;51.482;9.160;2024-01-11T04:48:43;100832.84;;;-10.93;100.00
77770;BME280;66961;51.482;9.160;2024-01-11T04:51:09;100830.31;;;-10.92;100.00
77770;BME280;66961;51.482;9.160;2024-01-11T04:53:42;100840.53;;;-10.92;100.00
77770;BME280;66961;51.482;9.160;2024-01-11T04:56:08;100862.69;;;-10.88;100.00
77770;BME280;66961;51.482;9.160;2024-01-11T04:58:35;100872.09;;;-10.88;100.00
77770;BME280;66961;51.482;9.160;2024-01-11T05:01:00;100860.16;;;-10.95;100.00
77770;BME280;66961;51.482;9.160;2024-01-11T05:03:25;100865.28;;;-10.97;100.00
77770;BME280;66961;51.482;9.160;2024-01-11T05:05:51;100881.47;;;-10.90;100.00
77770;BME280;66961;51.482;9.160;2024-01-11T05:08:16;100885.78;;;-10.95;100.00
77770;BME280;66961;51.482;9.160;2024-01-11T05:10:42;100891.75;;;-10.99;100.00
77770;BME280;66961;51.482;9.160;2024-01-11T05:13:07;100896.88;;;-10.99;100.00
77770;BME280;66961;51.482;9.160;2024-01-11T05:15:34;100903.69;;;-11.03;100.00
77770;BME280;66961;51.482;9.160;2024-01-11T05:17:59;100899.44;;;-11.06;100.00
77770;BME280;66961;51.482;9.160;2024-01-11T05:20:24;100890.03;;;-11.13;100.00
77770;BME280;66961;51.482;9.160;2024-01-11T05:22:50;100892.59;;;-11.10;100.00
77770;BME280;66961;51.482;9.160;2024-01-11T05:25:15;100893.44;;;-11.03;100.00
77770;BME280;66961;51.482;9.160;2024-01-11T05:27:40;100893.44;;;-11.06;100.00
77770;BME280;66961;51.482;9.160;2024-01-11T05:30:06;100896.00;;;-11.06;100.00
77770;BME280;66961;51.482;9.160;2024-01-11T05:32:31;100891.75;;;-11.01;100.00
77770;BME280;66961;51.482;9.160;2024-01-11T05:34:57;100889.19;;;-10.92;100.00
77770;BME280;66961;51.482;9.160;2024-01-11T05:37:22;100900.25;;;-10.88;100.00
77770;BME280;66961;51.482;9.160;2024-01-11T05:39:47;100894.28;;;-10.87;100.00
77770;BME280;66961;51.482;9.160;2024-01-11T05:42:12;100881.47;;;-10.80;100.00
77770;BME280;66961;51.482;9.160;2024-01-11T05:44:38;100862.66;;;-10.73;100.00
77770;BME280;66961;51.482;9.160;2024-01-11T05:47:03;100854.97;;;-10.68;100.00
77770;BME280;66961;51.482;9.160;2024-01-11T05:49:28;100837.88;;;-10.57;100.00
77770;BME280;66961;51.482;9.160;2024-01-11T05:51:53;100819.06;;;-10.50;100.00
77770;BME280;66961;51.482;9.160;2024-01-11T05:54:19;100820.75;;;-10.46;100.00
77770;BME280;66961;51.482;9.160;2024-01-11T05:56:44;100833.56;;;-10.43;100.00
77770;BME280;66961;51.482;9.160;2024-01-11T05:59:09;100822.44;;;-10.42;100.00
77770;BME280;66961;51.482;9.160;2024-01-11T06:01:40;100847.19;;;-10.38;100.00
77770;BME280;66961;51.482;9.160;2024-01-11T06:04:06;100867.66;;;-10.34;100.00
77770;BME280;66961;51.482;9.160;2024-01-11T06:06:31;100861.69;;;-10.37;100.00
77770;BME280;66961;51.482;9.160;2024-01-11T06:08:56;100863.44;;;-10.40;100.00
77770;BME280;66961;51.482;9.160;2024-01-11T06:11:22;100866.88;;;-10.43;100.00
77770;BME280;66961;51.482;9.160;2024-01-11T06:13:47;100877.13;;;-10.46;100.00
77770;BME280;66961;51.482;9.160;2024-01-11T06:16:12;100868.59;;;-10.52;100.00
77770;BME280;66961;51.482;9.160;2024-01-11T06:18:37;100863.50;;;-10.54;100.00
77770;BME280;66961;51.482;9.160;2024-01-11T06:21:03;100875.44;;;-10.56;100.00
77770;BME280;66961;51.482;9.160;2024-01-11T06:23:28;100871.19;;;-10.64;100.00
77770;BME280;66961;51.482;9.160;2024-01-11T06:25:53;100873.75;;;-10.63;100.00
77770;BME280;66961;51.482;9.160;2024-01-11T06:28:19;100870.34;;;-10.65;100.00
77770;BME280;66961;51.482;9.160;2024-01-11T06:30:44;100860.09;;;-10.66;100.00
77770;BME280;66961;51.482;9.160;2024-01-11T06:33:09;100868.63;;;-10.66;100.00
77770;BME280;66961;51.482;9.160;2024-01-11T06:35:34;100869.50;;;-10.68;100.00
77770;BME280;66961;51.482;9.160;2024-01-11T06:38:00;100869.50;;;-10.65;100.00
77770;BME280;66961;51.482;9.160;2024-01-11T06:40:25;100868.63;;;-10.69;100.00
77770;BME280;66961;51.482;9.160;2024-01-11T06:42:50;100876.31;;;-10.66;100.00
77770;BME280;66961;51.482;9.160;2024-01-11T06:45:16;100873.75;;;-10.69;100.00
77770;BME280;66961;51.482;9.160;2024-01-11T06:47:41;100886.56;;;-10.67;100.00
77770;BME280;66961;51.482;9.160;2024-01-11T06:50:07;100888.28;;;-10.74;100.00
77770;BME280;66961;51.482;9.160;2024-01-11T06:52:32;100884.88;;;-10.78;100.00
77770;BME280;66961;51.482;9.160;2024-01-11T06:54:57;100897.69;;;-10.76;100.00
77770;BME280;66961;51.482;9.160;2024-01-11T06:57:23;100879.75;;;-10.79;100.00
77770;BME280;66961;51.482;9.160;2024-01-11T06:59:48;100894.25;;;-10.72;100.00
77770;BME280;66961;51.482;9.160;2024-01-11T07:02:13;100879.75;;;-10.70;100.00
77770;BME280;66961;51.482;9.160;2024-01-11T07:04:43;100884.88;;;-10.68;100.00
77770;BME280;66961;51.482;9.160;2024-01-11T07:07:09;100881.44;;;-10.69;100.00
77770;BME280;66961;51.482;9.160;2024-01-11T07:09:34;100898.53;;;-10.76;100.00
77770;BME280;66961;51.482;9.160;2024-01-11T07:11:59;100896.81;;;-10.74;100.00
77770;BME280;66961;51.482;9.160;2024-01-11T07:14:26;100897.66;;;-10.72;100.00
77770;BME280;66961;51.482;9.160;2024-01-11T07:16:51;100900.25;;;-10.76;100.00
77770;BME280;66961;51.482;9.160;2024-01-11T07:19:16;100890.84;;;-10.74;100.00
77770;BME280;66961;51.482;9.160;2024-01-11T07:21:41;100889.13;;;-10.66;100.00
77770;BME280;66961;51.482;9.160;2024-01-11T07:24:07;100885.69;;;-10.59;100.00
77770;BME280;66961;51.482;9.160;2024-01-11T07:26:32;100886.56;;;-10.58;100.00
77770;BME280;66961;51.482;9.160;2024-01-11T07:28:57;100894.22;;;-10.57;100.00
77770;BME280;66961;51.482;9.160;2024-01-11T07:31:22;100884.84;;;-10.55;100.00
77770;BME280;66961;51.482;9.160;2024-01-11T07:33:48;100874.59;;;-10.56;100.00
77770;BME280;66961;51.482;9.160;2024-01-11T07:36:13;100859.19;;;-10.49;100.00
77770;BME280;66961;51.482;9.160;2024-01-11T07:38:38;100861.69;;;-10.38;100.00
77770;BME280;66961;51.482;9.160;2024-01-11T07:41:04;100846.38;;;-10.43;100.00
77770;BME280;66961;51.482;9.160;2024-01-11T07:43:29;100871.94;;;-10.30;100.00
77770;BME280;66961;51.482;9.160;2024-01-11T07:45:55;100868.50;;;-10.29;100.00
77770;BME280;66961;51.482;9.160;2024-01-11T07:48:20;100874.47;;;-10.24;100.00
77770;BME280;66961;51.482;9.160;2024-01-11T07:50:45;100882.16;;;-10.24;100.00
77770;BME280;66961;51.482;9.160;2024-01-11T07:53:10;100879.59;;;-10.24;100.00
77770;BME280;66961;51.482;9.160;2024-01-11T07:55:36;100889.78;;;-10.14;100.00
77770;BME280;66961;51.482;9.160;2024-01-11T07:58:01;100888.91;;;-10.10;100.00
77770;BME280;66961;51.482;9.160;2024-01-11T08:00:26;100889.78;;;-10.09;100.00
77770;BME280;66961;51.482;9.160;2024-01-11T08:02:51;100897.44;;;-10.05;100.00
77770;BME280;66961;51.482;9.160;2024-01-11T08:05:17;100903.41;;;-10.04;100.00
77770;BME280;66961;51.482;9.160;2024-01-11T08:07:42;100901.72;;;-10.07;100.00
77770;BME280;66961;51.482;9.160;2024-01-11T08:10:07;100913.66;;;-10.01;100.00
77770;BME280;66961;51.482;9.160;2024-01-11T08:12:33;100892.28;;;-10.00;100.00
77770;BME280;66961;51.482;9.160;2024-01-11T08:14:58;100910.22;;;-9.91;100.00
77770;BME280;66961;51.482;9.160;2024-01-11T08:17:23;100906.78;;;-9.90;100.00
77770;BME280;66961;51.482;9.160;2024-01-11T08:19:49;100911.00;;;-9.84;100.00
77770;BME280;66961;51.482;9.160;2024-01-11T08:22:14;100906.69;;;-9.79;100.00
77770;BME280;66961;51.482;9.160;2024-01-11T08:24:40;100893.03;;;-9.78;100.00
77770;BME280;66961;51.482;9.160;2024-01-11T08:27:05;100898.97;;;-9.72;100.00
77770;BME280;66961;51.482;9.160;2024-01-11T08:29:30;100898.94;;;-9.65;100.00
77770;BME280;66961;51.482;9.160;2024-01-11T08:31:55;100903.19;;;-9.61;100.00
77770;BME280;66961;51.482;9.160;2024-01-11T08:34:21;100901.44;;;-9.55;100.00
77770;BME280;66961;51.482;9.160;2024-01-11T08:36:46;100915.97;;;-9.52;100.00
77770;BME280;66961;51.482;9.160;2024-01-11T08:39:11;100905.69;;;-9.51;99.94
77770;BME280;66961;51.482;9.160;2024-01-11T08:41:37;100908.28;;;-9.51;99.56
77770;BME280;66961;51.482;9.160;2024-01-11T08:44:02;100910.78;;;-9.45;99.64
77770;BME280;66961;51.482;9.160;2024-01-11T08:46:28;100912.47;;;-9.39;100.00
77770;BME280;66961;51.482;9.160;2024-01-11T08:48:54;100909.88;;;-9.36;99.83
77770;BME280;66961;51.482;9.160;2024-01-11T08:51:19;100898.69;;;-9.30;100.00
77770;BME280;66961;51.482;9.160;2024-01-11T08:53:44;100899.50;;;-9.22;99.79
77770;BME280;66961;51.482;9.160;2024-01-11T08:56:10;100916.50;;;-9.08;100.00
77770;BME280;66961;51.482;9.160;2024-01-11T08:58:35;100916.44;;;-8.97;100.00
77770;BME280;66961;51.482;9.160;2024-01-11T09:01:00;100907.78;;;-8.88;99.04
77770;BME280;66961;51.482;9.160;2024-01-11T09:03:25;100899.94;;;-8.73;98.69
77770;BME280;66961;51.482;9.160;2024-01-11T09:05:51;100900.69;;;-8.62;97.87
77770;BME280;66961;51.482;9.160;2024-01-11T09:08:16;100912.44;;;-8.38;97.18
77770;BME280;66961;51.482;9.160;2024-01-11T09:10:41;100927.66;;;-8.24;96.01
77770;BME280;66961;51.482;9.160;2024-01-11T09:13:07;100932.59;;;-8.06;95.61
77770;BME280;66961;51.482;9.160;2024-01-11T09:15:32;100934.06;;;-7.82;94.96
77770;BME280;66961;51.482;9.160;2024-01-11T09:17:58;100924.28;;;-7.59;93.96
77770;BME280;66961;51.482;9.160;2024-01-11T09:20:23;100912.94;;;-7.46;92.71
77770;BME280;66961;51.482;9.160;2024-01-11T09:22:49;100918.72;;;-7.28;91.76
77770;BME280;66961;51.482;9.160;2024-01-11T09:25:14;100916.56;;;-7.01;91.67
77770;BME280;66961;51.482;9.160;2024-01-11T09:27:39;100920.50;;;-6.80;90.59
77770;BME280;66961;51.482;9.160;2024-01-11T09:30:05;100927.03;;;-6.60;89.96
77770;BME280;66961;51.482;9.160;2024-01-11T09:32:31;100925.03;;;-6.45;89.67
77770;BME280;66961;51.482;9.160;2024-01-11T09:34:56;100933.38;;;-6.30;87.34
77770;BME280;66961;51.482;9.160;2024-01-11T09:37:21;100929.06;;;-6.30;87.06
77770;BME280;66961;51.482;9.160;2024-01-11T09:39:47;100952.00;;;-6.16;86.55
77770;BME280;66961;51.482;9.160;2024-01-11T09:42:12;100962.84;;;-5.97;85.74
77770;BME280;66961;51.482;9.160;2024-01-11T09:44:37;100955.97;;;-5.98;84.54
77770;BME280;66961;51.482;9.160;2024-01-11T09:47:04;100950.66;;;-5.89;85.55
77770;BME280;66961;51.482;9.160;2024-01-11T09:49:30;100950.03;;;-5.62;83.64
77770;BME280;66961;51.482;9.160;2024-01-11T09:51:56;100938.97;;;-5.28;84.21
77770;BME280;66961;51.482;9.160;2024-01-11T09:54:23;100944.91;;;-5.23;80.92
77770;BME280;66961;51.482;9.160;2024-01-11T09:56:50;100941.25;;;-5.16;81.11
77770;BME280;66961;51.482;9.160;2024-01-11T09:59:18;100929.91;;;-5.09;80.02
77770;BME280;66961;51.482;9.160;2024-01-11T10:01:44;100922.53;;;-4.89;79.21
77770;BME280;66961;51.482;9.160;2024-01-11T10:04:09;100919.06;;;-4.88;78.87
77770;BME280;66961;51.482;9.160;2024-01-11T10:06:38;100901.63;;;-4.80;78.52
77770;BME280;66961;51.482;9.160;2024-01-11T10:09:03;100912.09;;;-4.52;77.84
77770;BME280;66961;51.482;9.160;2024-01-11T10:11:29;100905.38;;;-4.26;77.85
77770;BME280;66961;51.482;9.160;2024-01-11T10:13:57;100906.19;;;-4.24;76.82
77770;BME280;66961;51.482;9.160;2024-01-11T10:16:23;100911.56;;;-4.01;75.79
77770;BME280;66961;51.482;9.160;2024-01-11T10:18:48;100904.94;;;-3.80;74.12
77770;BME280;66961;51.482;9.160;2024-01-11T10:21:13;100912.59;;;-3.76;73.92
77770;BME280;66961;51.482;9.160;2024-01-11T10:23:39;100913.66;;;-3.55;74.46
77770;BME280;66961;51.482;9.160;2024-01-11T10:26:04;100916.69;;;-3.41;72.53
77770;BME280;66961;51.482;9.160;2024-01-11T10:28:29;100917.69;;;-3.17;71.81
77770;BME280;66961;51.482;9.160;2024-01-11T10:30:56;100909.25;;;-3.23;71.17
77770;BME280;66961;51.482;9.160;2024-01-11T10:33:22;100912.75;;;-2.98;71.20
77770;BME280;66961;51.482;9.160;2024-01-11T10:35:48;100906.63;;;-2.95;69.07
77770;BME280;66961;51.482;9.160;2024-01-11T10:38:14;100907.53;;;-2.70;70.47
77770;BME280;66961;51.482;9.160;2024-01-11T10:40:40;100912.22;;;-2.56;68.76
77770;BME280;66961;51.482;9.160;2024-01-11T10:43:09;100895.56;;;-2.49;69.00
77770;BME280;66961;51.482;9.160;2024-01-11T10:45:34;100897.09;;;-2.44;67.34
77770;BME280;66961;51.482;9.160;2024-01-11T10:48:06;100891.78;;;-2.41;67.30
77770;BME280;66961;51.482;9.160;2024-01-11T10:50:34;100884.09;;;-2.19;67.46
77770;BME280;66961;51.482;9.160;2024-01-11T10:53:12;100881.84;;;-2.05;67.86
77770;BME280;66961;51.482;9.160;2024-01-11T10:55:38;100871.06;;;-1.94;67.56
77770;BME280;66961;51.482;9.160;2024-01-11T10:58:04;100881.00;;;-1.82;67.03
77770;BME280;66961;51.482;9.160;2024-01-11T11:00:30;100877.31;;;-1.76;67.74
77770;BME280;66961;51.482;9.160;2024-01-11T11:02:58;100855.22;;;-1.64;68.74
77770;BME280;66961;51.482;9.160;2024-01-11T11:05:25;100866.41;;;-1.41;68.88
77770;BME280;66961;51.482;9.160;2024-01-11T11:07:52;100854.72;;;-1.30;68.61
77770;BME280;66961;51.482;9.160;2024-01-11T11:10:19;100840.09;;;-1.11;65.90
77770;BME280;66961;51.482;9.160;2024-01-11T11:12:48;100837.66;;;-1.16;65.28
77770;BME280;66961;51.482;9.160;2024-01-11T11:15:14;100833.38;;;-0.96;66.98
77770;BME280;66961;51.482;9.160;2024-01-11T11:17:41;100830.91;;;-1.00;63.70
77770;BME280;66961;51.482;9.160;2024-01-11T11:20:07;100832.88;;;-0.84;61.81
77770;BME280;66961;51.482;9.160;2024-01-11T11:22:36;100825.31;;;-0.90;63.41
77770;BME280;66961;51.482;9.160;2024-01-11T11:25:11;100844.81;;;-0.58;63.17
77770;BME280;66961;51.482;9.160;2024-01-11T11:27:37;100845.59;;;-0.56;63.46
77770;BME280;66961;51.482;9.160;2024-01-11T11:30:05;100845.25;;;-0.10;62.34
77770;BME280;66961;51.482;9.160;2024-01-11T11:32:38;100845.56;;;0.02;62.03
77770;BME280;66961;51.482;9.160;2024-01-11T11:35:05;100851.38;;;-0.11;59.31
77770;BME280;66961;51.482;9.160;2024-01-11T11:37:30;100855.19;;;0.20;58.44
77770;BME280;66961;51.482;9.160;2024-01-11T11:39:57;100857.56;;;0.24;57.32
77770;BME280;66961;51.482;9.160;2024-01-11T11:42:23;100844.81;;;0.37;56.51
77770;BME280;66961;51.482;9.160;2024-01-11T11:44:49;100838.72;;;0.55;55.27
77770;BME280;66961;51.482;9.160;2024-01-11T11:47:20;100832.03;;;0.86;56.26
77770;BME280;66961;51.482;9.160;2024-01-11T11:52:23;100827.50;;;0.89;56.84
77770;BME280;66961;51.482;9.160;2024-01-11T11:54:48;100830.41;;;1.18;56.57
77770;BME280;66961;51.482;9.160;2024-01-11T11:57:16;100831.88;;;1.41;55.48
77770;BME280;66961;51.482;9.160;2024-01-11T11:59:42;100823.97;;;1.42;54.04
77770;BME280;66961;51.482;9.160;2024-01-11T12:02:15;100830.50;;;1.66;55.31
77770;BME280;66961;51.482;9.160;2024-01-11T12:04:46;100833.78;;;1.54;55.53
77770;BME280;66961;51.482;9.160;2024-01-11T12:07:11;100837.41;;;1.67;55.19
77770;BME280;66961;51.482;9.160;2024-01-11T12:09:37;100835.53;;;1.54;55.47
77770;BME280;66961;51.482;9.160;2024-01-11T12:12:03;100832.31;;;1.82;56.08
77770;BME280;66961;51.482;9.160;2024-01-11T12:14:28;100833.00;;;1.52;56.39
77770;BME280;66961;51.482;9.160;2024-01-11T12:16:57;100840.47;;;1.43;56.73
77770;BME280;66961;51.482;9.160;2024-01-11T12:19:23;100827.19;;;1.47;55.63
77770;BME280;66961;51.482;9.160;2024-01-11T12:21:49;100828.09;;;1.29;55.37
77770;BME280;66961;51.482;9.160;2024-01-11T12:24:15;100825.81;;;1.40;54.89
77770;BME280;66961;51.482;9.160;2024-01-11T12:26:41;100820.19;;;1.81;54.94
77770;BME280;66961;51.482;9.160;2024-01-11T12:29:07;100815.06;;;1.95;54.88
77770;BME280;66961;51.482;9.160;2024-01-11T12:31:32;100805.56;;;1.77;54.50
77770;BME280;66961;51.482;9.160;2024-01-11T12:33:57;100825.34;;;1.98;52.95
77770;BME280;66961;51.482;9.160;2024-01-11T12:36:23;100825.50;;;2.11;53.51